sensor_id;sensor_type;location;lat;lon;timestamp;P1;durP1;ratioP1;P2;durP2;ratioP2
23376;SDS011;14353;46.070;13.222;2022-12-07T00:01:19;5.65;;;4.43;;
23376;SDS011;14353;46.070;13.222;2022-12-07T00:03:54;5.65;;;4.25;;
23376;SDS011;14353;46.070;13.222;2022-12-07T00:06:33;4.60;;;4.15;;
23376;SDS011;14353;46.070;13.222;2022-12-07T00:09:00;5.78;;;4.72;;
23376;SDS011;14353;46.070;13.222;2022-12-07T00:11:27;5.85;;;4.53;;
23376;SDS011;14353;46.070;13.222;2022-12-07T00:13:57;5.15;;;4.13;;
23376;SDS011;14353;46.070;13.222;2022-12-07T00:16:25;5.15;;;4.10;;
23376;SDS011;14353;46.070;13.222;2022-12-07T00:18:52;6.32;;;4.47;;
23376;SDS011;14353;46.070;13.222;2022-12-07T00:21:19;5.53;;;4.15;;
23376;SDS011;14353;46.070;13.222;2022-12-07T00:23:49;4.47;;;4.05;;
23376;SDS011;14353;46.070;13.222;2022-12-07T00:26:20;4.50;;;3.83;;
23376;SDS011;14353;46.070;13.222;2022-12-07T00:28:54;4.80;;;4.30;;
23376;SDS011;14353;46.070;13.222;2022-12-07T00:31:23;4.75;;;4.13;;
23376;SDS011;14353;46.070;13.222;2022-12-07T00:33:50;5.32;;;4.30;;
23376;SDS011;14353;46.070;13.222;2022-12-07T00:36:18;4.75;;;4.22;;
23376;SDS011;14353;46.070;13.222;2022-12-07T00:38:45;5.63;;;4.30;;
23376;SDS011;14353;46.070;13.222;2022-12-07T00:41:15;5.93;;;4.43;;
23376;SDS011;14353;46.070;13.222;2022-12-07T00:43:45;4.32;;;3.78;;
23376;SDS011;14353;46.070;13.222;2022-12-07T00:46:13;4.38;;;3.85;;
23376;SDS011;14353;46.070;13.222;2022-12-07T00:48:47;5.22;;;4.32;;
23376;SDS011;14353;46.070;13.222;2022-12-07T00:51:15;5.03;;;4.07;;
23376;SDS011;14353;46.070;13.222;2022-12-07T00:53:42;5.38;;;4.38;;
23376;SDS011;14353;46.070;13.222;2022-12-07T00:56:12;4.75;;;3.67;;
23376;SDS011;14353;46.070;13.222;2022-12-07T00:58:51;4.47;;;3.88;;
23376;SDS011;14353;46.070;13.222;2022-12-07T01:01:18;5.07;;;4.10;;
23376;SDS011;14353;46.070;13.222;2022-12-07T01:03:44;4.28;;;3.85;;
23376;SDS011;14353;46.070;13.222;2022-12-07T01:06:13;5.10;;;3.92;;
23376;SDS011;14353;46.070;13.222;2022-12-07T01:08:43;4.47;;;3.85;;
23376;SDS011;14353;46.070;13.222;2022-12-07T01:11:11;4.72;;;4.15;;
23376;SDS011;14353;46.070;13.222;2022-12-07T01:13:39;4.72;;;4.15;;
23376;SDS011;14353;46.070;13.222;2022-12-07T01:16:05;4.15;;;3.58;;
23376;SDS011;14353;46.070;13.222;2022-12-07T01:18:33;4.40;;;3.97;;
23376;SDS011;14353;46.070;13.222;2022-12-07T01:21:15;4.70;;;3.60;;
23376;SDS011;14353;46.070;13.222;2022-12-07T01:23:45;4.25;;;3.80;;
23376;SDS011;14353;46.070;13.222;2022-12-07T01:26:12;4.55;;;3.90;;
23376;SDS011;14353;46.070;13.222;2022-12-07T01:28:40;5.28;;;3.92;;
23376;SDS011;14353;46.070;13.222;2022-12-07T01:31:07;4.65;;;3.95;;
23376;SDS011;14353;46.070;13.222;2022-12-07T01:33:55;4.35;;;3.72;;
23376;SDS011;14353;46.070;13.222;2022-12-07T01:36:24;4.18;;;3.53;;
23376;SDS011;14353;46.070;13.222;2022-12-07T01:38:54;5.05;;;3.72;;
23376;SDS011;14353;46.070;13.222;2022-12-07T01:41:21;4.32;;;3.50;;
23376;SDS011;14353;46.070;13.222;2022-12-07T01:44:09;4.43;;;3.90;;
23376;SDS011;14353;46.070;13.222;2022-12-07T01:46:48;4.15;;;3.70;;
23376;SDS011;14353;46.070;13.222;2022-12-07T01:49:21;4.15;;;3.58;;
23376;SDS011;14353;46.070;13.222;2022-12-07T01:51:55;4.75;;;3.47;;
23376;SDS011;14353;46.070;13.222;2022-12-07T01:54:28;4.45;;;3.78;;
23376;SDS011;14353;46.070;13.222;2022-12-07T01:56:55;3.90;;;3.50;;
23376;SDS011;14353;46.070;13.222;2022-12-07T01:59:23;5.82;;;3.78;;
23376;SDS011;14353;46.070;13.222;2022-12-07T02:01:54;4.05;;;3.58;;
23376;SDS011;14353;46.070;13.222;2022-12-07T02:04:21;4.28;;;3.50;;
23376;SDS011;14353;46.070;13.222;2022-12-07T02:06:52;4.78;;;3.92;;
23376;SDS011;14353;46.070;13.222;2022-12-07T02:09:19;4.20;;;3.60;;
23376;SDS011;14353;46.070;13.222;2022-12-07T02:11:45;4.05;;;3.53;;
23376;SDS011;14353;46.070;13.222;2022-12-07T02:14:11;3.65;;;3.33;;
23376;SDS011;14353;46.070;13.222;2022-12-07T02:16:50;4.80;;;3.78;;
23376;SDS011;14353;46.070;13.222;2022-12-07T02:31:05;3.47;;;3.00;;
23376;SDS011;14353;46.070;13.222;2022-12-07T02:33:54;3.78;;;3.38;;
23376;SDS011;14353;46.070;13.222;2022-12-07T02:36:33;3.42;;;3.00;;
23376;SDS011;14353;46.070;13.222;2022-12-07T02:39:11;3.60;;;3.20;;
23376;SDS011;14353;46.070;13.222;2022-12-07T02:41:51;3.92;;;3.53;;
23376;SDS011;14353;46.070;13.222;2022-12-07T02:44:22;3.88;;;3.45;;
23376;SDS011;14353;46.070;13.222;2022-12-07T02:46:52;3.88;;;3.20;;
23376;SDS011;14353;46.070;13.222;2022-12-07T02:49:22;3.30;;;3.00;;
23376;SDS011;14353;46.070;13.222;2022-12-07T02:51:49;4.22;;;3.20;;
23376;SDS011;14353;46.070;13.222;2022-12-07T02:54:19;3.60;;;3.15;;
23376;SDS011;14353;46.070;13.222;2022-12-07T02:56:54;3.25;;;2.95;;
23376;SDS011;14353;46.070;13.222;2022-12-07T03:12:44;4.05;;;3.17;;
23376;SDS011;14353;46.070;13.222;2022-12-07T03:15:22;3.08;;;2.72;;
23376;SDS011;14353;46.070;13.222;2022-12-07T03:17:54;3.72;;;2.90;;
23376;SDS011;14353;46.070;13.222;2022-12-07T03:20:24;3.58;;;3.10;;
23376;SDS011;14353;46.070;13.222;2022-12-07T03:22:51;3.35;;;2.90;;
23376;SDS011;14353;46.070;13.222;2022-12-07T03:25:21;3.85;;;3.17;;
23376;SDS011;14353;46.070;13.222;2022-12-07T03:30:18;3.08;;;2.78;;
23376;SDS011;14353;46.070;13.222;2022-12-07T03:33:09;3.05;;;2.75;;
23376;SDS011;14353;46.070;13.222;2022-12-07T03:35:45;3.35;;;2.90;;
23376;SDS011;14353;46.070;13.222;2022-12-07T03:43:24;3.10;;;2.80;;
23376;SDS011;14353;46.070;13.222;2022-12-07T03:45:58;4.45;;;3.35;;
23376;SDS011;14353;46.070;13.222;2022-12-07T03:48:32;3.30;;;2.72;;
23376;SDS011;14353;46.070;13.222;2022-12-07T03:51:38;3.38;;;2.88;;
23376;SDS011;14353;46.070;13.222;2022-12-07T03:56:58;3.28;;;2.88;;
23376;SDS011;14353;46.070;13.222;2022-12-07T03:59:26;3.85;;;2.75;;
23376;SDS011;14353;46.070;13.222;2022-12-07T04:01:57;3.42;;;3.00;;
23376;SDS011;14353;46.070;13.222;2022-12-07T04:04:26;3.13;;;2.70;;
23376;SDS011;14353;46.070;13.222;2022-12-07T04:06:53;3.67;;;3.05;;
23376;SDS011;14353;46.070;13.222;2022-12-07T04:09:19;3.30;;;2.95;;
23376;SDS011;14353;46.070;13.222;2022-12-07T04:11:48;2.83;;;2.58;;
23376;SDS011;14353;46.070;13.222;2022-12-07T04:14:14;3.13;;;2.72;;
23376;SDS011;14353;46.070;13.222;2022-12-07T04:16:44;2.88;;;2.60;;
23376;SDS011;14353;46.070;13.222;2022-12-07T04:19:22;3.00;;;2.70;;
23376;SDS011;14353;46.070;13.222;2022-12-07T04:21:52;3.08;;;2.78;;
23376;SDS011;14353;46.070;13.222;2022-12-07T04:24:18;2.67;;;2.42;;
23376;SDS011;14353;46.070;13.222;2022-12-07T04:26:48;2.92;;;2.63;;
23376;SDS011;14353;46.070;13.222;2022-12-07T04:29:15;2.90;;;2.70;;
23376;SDS011;14353;46.070;13.222;2022-12-07T04:31:42;2.90;;;2.60;;
23376;SDS011;14353;46.070;13.222;2022-12-07T04:34:08;3.78;;;2.50;;
23376;SDS011;14353;46.070;13.222;2022-12-07T04:36:35;3.15;;;2.83;;
23376;SDS011;14353;46.070;13.222;2022-12-07T04:39:01;3.05;;;2.70;;
23376;SDS011;14353;46.070;13.222;2022-12-07T04:41:27;2.88;;;2.47;;
23376;SDS011;14353;46.070;13.222;2022-12-07T04:43:57;3.00;;;2.50;;
23376;SDS011;14353;46.070;13.222;2022-12-07T04:46:28;3.35;;;2.50;;
23376;SDS011;14353;46.070;13.222;2022-12-07T04:48:56;3.15;;;2.80;;
23376;SDS011;14353;46.070;13.222;2022-12-07T04:51:26;2.67;;;2.40;;
23376;SDS011;14353;46.070;13.222;2022-12-07T04:53:56;3.03;;;2.50;;
23376;SDS011;14353;46.070;13.222;2022-12-07T04:56:23;2.50;;;2.30;;
23376;SDS011;14353;46.070;13.222;2022-12-07T04:58:52;2.80;;;2.50;;
23376;SDS011;14353;46.070;13.222;2022-12-07T05:01:19;3.10;;;2.38;;
23376;SDS011;14353;46.070;13.222;2022-12-07T05:03:46;2.88;;;2.50;;
23376;SDS011;14353;46.070;13.222;2022-12-07T05:06:12;2.45;;;2.22;;
23376;SDS011;14353;46.070;13.222;2022-12-07T05:08:38;2.72;;;2.40;;
23376;SDS011;14353;46.070;13.222;2022-12-07T05:11:05;3.00;;;2.70;;
23376;SDS011;14353;46.070;13.222;2022-12-07T05:13:31;2.72;;;2.35;;
23376;SDS011;14353;46.070;13.222;2022-12-07T05:16:01;3.00;;;2.40;;
23376;SDS011;14353;46.070;13.222;2022-12-07T05:18:27;2.60;;;2.40;;
23376;SDS011;14353;46.070;13.222;2022-12-07T05:20:53;2.60;;;2.40;;
23376;SDS011;14353;46.070;13.222;2022-12-07T05:23:19;2.70;;;2.47;;
23376;SDS011;14353;46.070;13.222;2022-12-07T05:25:45;2.90;;;2.13;;
23376;SDS011;14353;46.070;13.222;2022-12-07T05:28:11;2.45;;;2.22;;
23376;SDS011;14353;46.070;13.222;2022-12-07T05:30:39;2.85;;;2.30;;
23376;SDS011;14353;46.070;13.222;2022-12-07T05:33:17;2.60;;;2.25;;
23376;SDS011;14353;46.070;13.222;2022-12-07T05:35:43;2.58;;;2.10;;
23376;SDS011;14353;46.070;13.222;2022-12-07T05:38:08;2.38;;;2.17;;
23376;SDS011;14353;46.070;13.222;2022-12-07T05:40:34;2.30;;;2.10;;
23376;SDS011;14353;46.070;13.222;2022-12-07T05:43:01;2.42;;;2.22;;
23376;SDS011;14353;46.070;13.222;2022-12-07T05:45:27;2.38;;;2.17;;
23376;SDS011;14353;46.070;13.222;2022-12-07T05:47:53;2.42;;;2.10;;
23376;SDS011;14353;46.070;13.222;2022-12-07T05:50:19;2.53;;;2.33;;
23376;SDS011;14353;46.070;13.222;2022-12-07T05:52:44;2.20;;;1.95;;
23376;SDS011;14353;46.070;13.222;2022-12-07T05:55:10;2.40;;;2.10;;
23376;SDS011;14353;46.070;13.222;2022-12-07T05:57:39;2.20;;;2.00;;
23376;SDS011;14353;46.070;13.222;2022-12-07T06:00:05;2.28;;;2.08;;
23376;SDS011;14353;46.070;13.222;2022-12-07T06:02:31;2.45;;;2.15;;
23376;SDS011;14353;46.070;13.222;2022-12-07T06:04:57;2.63;;;2.33;;
23376;SDS011;14353;46.070;13.222;2022-12-07T06:07:22;2.30;;;2.00;;
23376;SDS011;14353;46.070;13.222;2022-12-07T06:09:48;2.63;;;2.28;;
23376;SDS011;14353;46.070;13.222;2022-12-07T06:12:14;2.40;;;2.20;;
23376;SDS011;14353;46.070;13.222;2022-12-07T06:14:58;2.20;;;2.00;;
23376;SDS011;14353;46.070;13.222;2022-12-07T06:17:24;2.97;;;2.30;;
23376;SDS011;14353;46.070;13.222;2022-12-07T06:19:53;2.92;;;2.28;;
23376;SDS011;14353;46.070;13.222;2022-12-07T06:22:19;2.22;;;2.03;;
23376;SDS011;14353;46.070;13.222;2022-12-07T06:24:45;2.28;;;2.08;;
23376;SDS011;14353;46.070;13.222;2022-12-07T06:27:11;2.05;;;1.70;;
23376;SDS011;14353;46.070;13.222;2022-12-07T06:29:43;2.25;;;1.88;;
23376;SDS011;14353;46.070;13.222;2022-12-07T06:32:12;2.20;;;2.00;;
23376;SDS011;14353;46.070;13.222;2022-12-07T06:34:38;2.55;;;1.75;;
23376;SDS011;14353;46.070;13.222;2022-12-07T06:37:03;1.88;;;1.70;;
23376;SDS011;14353;46.070;13.222;2022-12-07T06:39:32;2.05;;;1.70;;
23376;SDS011;14353;46.070;13.222;2022-12-07T06:41:58;1.98;;;1.70;;
23376;SDS011;14353;46.070;13.222;2022-12-07T06:44:24;2.95;;;1.58;;
23376;SDS011;14353;46.070;13.222;2022-12-07T06:47:15;1.48;;;1.35;;
23376;SDS011;14353;46.070;13.222;2022-12-07T06:49:43;3.58;;;1.70;;
23376;SDS011;14353;46.070;13.222;2022-12-07T06:52:09;1.80;;;1.55;;
23376;SDS011;14353;46.070;13.222;2022-12-07T06:54:41;5.80;;;1.58;;
23376;SDS011;14353;46.070;13.222;2022-12-07T06:57:11;3.20;;;1.52;;
23376;SDS011;14353;46.070;13.222;2022-12-07T06:59:53;3.40;;;1.90;;
23376;SDS011;14353;46.070;13.222;2022-12-07T07:02:22;5.68;;;1.88;;
23376;SDS011;14353;46.070;13.222;2022-12-07T07:04:47;6.25;;;2.20;;
23376;SDS011;14353;46.070;13.222;2022-12-07T07:07:16;4.05;;;1.83;;
23376;SDS011;14353;46.070;13.222;2022-12-07T07:09:47;3.42;;;1.85;;
23376;SDS011;14353;46.070;13.222;2022-12-07T07:12:17;6.53;;;1.85;;
23376;SDS011;14353;46.070;13.222;2022-12-07T07:14:49;8.63;;;1.92;;
23376;SDS011;14353;46.070;13.222;2022-12-07T07:17:30;4.80;;;1.90;;
23376;SDS011;14353;46.070;13.222;2022-12-07T07:20:02;4.88;;;1.98;;
23376;SDS011;14353;46.070;13.222;2022-12-07T07:22:34;2.92;;;1.80;;
23376;SDS011;14353;46.070;13.222;2022-12-07T07:25:00;4.60;;;2.10;;
23376;SDS011;14353;46.070;13.222;2022-12-07T07:30:45;5.18;;;1.90;;
23376;SDS011;14353;46.070;13.222;2022-12-07T07:33:14;6.78;;;2.20;;
23376;SDS011;14353;46.070;13.222;2022-12-07T07:35:52;5.25;;;2.22;;
23376;SDS011;14353;46.070;13.222;2022-12-07T07:38:21;5.32;;;1.95;;
23376;SDS011;14353;46.070;13.222;2022-12-07T07:40:53;6.47;;;2.20;;
23376;SDS011;14353;46.070;13.222;2022-12-07T07:43:50;5.13;;;1.88;;
23376;SDS011;14353;46.070;13.222;2022-12-07T07:46:36;7.47;;;2.20;;
23376;SDS011;14353;46.070;13.222;2022-12-07T07:49:02;5.25;;;2.15;;
23376;SDS011;14353;46.070;13.222;2022-12-07T07:52:00;9.93;;;2.40;;
23376;SDS011;14353;46.070;13.222;2022-12-07T07:54:31;7.68;;;2.72;;
23376;SDS011;14353;46.070;13.222;2022-12-07T07:57:00;5.15;;;2.22;;
23376;SDS011;14353;46.070;13.222;2022-12-07T07:59:26;5.22;;;2.20;;
23376;SDS011;14353;46.070;13.222;2022-12-07T08:01:59;5.53;;;2.28;;
23376;SDS011;14353;46.070;13.222;2022-12-07T08:04:36;6.88;;;2.20;;
23376;SDS011;14353;46.070;13.222;2022-12-07T08:07:02;11.00;;;2.03;;
23376;SDS011;14353;46.070;13.222;2022-12-07T08:12:19;11.55;;;2.22;;
23376;SDS011;14353;46.070;13.222;2022-12-07T08:15:06;8.20;;;2.50;;
23376;SDS011;14353;46.070;13.222;2022-12-07T08:17:43;5.72;;;2.65;;
23376;SDS011;14353;46.070;13.222;2022-12-07T08:20:20;10.88;;;2.53;;
23376;SDS011;14353;46.070;13.222;2022-12-07T08:22:49;10.43;;;2.50;;
23376;SDS011;14353;46.070;13.222;2022-12-07T08:25:26;9.48;;;2.92;;
23376;SDS011;14353;46.070;13.222;2022-12-07T08:27:55;7.15;;;2.60;;
23376;SDS011;14353;46.070;13.222;2022-12-07T08:30:32;9.15;;;2.90;;
23376;SDS011;14353;46.070;13.222;2022-12-07T08:33:08;11.80;;;3.00;;
23376;SDS011;14353;46.070;13.222;2022-12-07T08:35:51;10.55;;;2.83;;
23376;SDS011;14353;46.070;13.222;2022-12-07T08:41:06;7.40;;;2.72;;
23376;SDS011;14353;46.070;13.222;2022-12-07T08:43:36;10.68;;;2.80;;
23376;SDS011;14353;46.070;13.222;2022-12-07T08:46:38;9.15;;;2.40;;
23376;SDS011;14353;46.070;13.222;2022-12-07T08:52:14;7.50;;;2.70;;
23376;SDS011;14353;46.070;13.222;2022-12-07T08:55:17;9.50;;;2.70;;
23376;SDS011;14353;46.070;13.222;2022-12-07T08:58:21;5.10;;;2.20;;
23376;SDS011;14353;46.070;13.222;2022-12-07T09:00:55;8.13;;;2.60;;
23376;SDS011;14353;46.070;13.222;2022-12-07T09:03:33;7.38;;;2.60;;
23376;SDS011;14353;46.070;13.222;2022-12-07T09:06:00;6.38;;;2.10;;
23376;SDS011;14353;46.070;13.222;2022-12-07T09:08:28;8.77;;;2.35;;
23376;SDS011;14353;46.070;13.222;2022-12-07T09:14:31;11.68;;;2.60;;
23376;SDS011;14353;46.070;13.222;2022-12-07T09:17:32;9.27;;;2.70;;
23376;SDS011;14353;46.070;13.222;2022-12-07T09:23:20;9.20;;;2.65;;
23376;SDS011;14353;46.070;13.222;2022-12-07T09:26:07;5.00;;;2.45;;
23376;SDS011;14353;46.070;13.222;2022-12-07T09:34:32;12.93;;;3.25;;
23376;SDS011;14353;46.070;13.222;2022-12-07T09:40:27;8.55;;;3.20;;
23376;SDS011;14353;46.070;13.222;2022-12-07T09:43:02;7.43;;;2.50;;
23376;SDS011;14353;46.070;13.222;2022-12-07T09:46:09;7.13;;;2.65;;
23376;SDS011;14353;46.070;13.222;2022-12-07T09:48:50;12.63;;;3.20;;
23376;SDS011;14353;46.070;13.222;2022-12-07T10:01:39;8.73;;;3.33;;
23376;SDS011;14353;46.070;13.222;2022-12-07T10:07:25;6.05;;;2.70;;
23376;SDS011;14353;46.070;13.222;2022-12-07T10:10:17;13.98;;;3.00;;
23376;SDS011;14353;46.070;13.222;2022-12-07T10:13:44;12.40;;;3.30;;
23376;SDS011;14353;46.070;13.222;2022-12-07T10:20:24;16.10;;;3.60;;
23376;SDS011;14353;46.070;13.222;2022-12-07T10:23:33;23.48;;;3.67;;
23376;SDS011;14353;46.070;13.222;2022-12-07T10:26:31;20.67;;;4.05;;
23376;SDS011;14353;46.070;13.222;2022-12-07T10:42:03;16.05;;;2.97;;
23376;SDS011;14353;46.070;13.222;2022-12-07T10:44:49;6.93;;;2.60;;
23376;SDS011;14353;46.070;13.222;2022-12-07T10:47:55;5.22;;;2.67;;
23376;SDS011;14353;46.070;13.222;2022-12-07T10:50:58;8.38;;;2.83;;
23376;SDS011;14353;46.070;13.222;2022-12-07T10:54:10;9.77;;;2.70;;
23376;SDS011;14353;46.070;13.222;2022-12-07T10:57:16;5.68;;;2.47;;
23376;SDS011;14353;46.070;13.222;2022-12-07T11:00:11;8.07;;;2.67;;
23376;SDS011;14353;46.070;13.222;2022-12-07T11:18:22;8.43;;;2.63;;
23376;SDS011;14353;46.070;13.222;2022-12-07T11:37:48;10.38;;;2.60;;
23376;SDS011;14353;46.070;13.222;2022-12-07T11:40:29;10.65;;;3.08;;
23376;SDS011;14353;46.070;13.222;2022-12-07T11:43:04;8.85;;;2.70;;
23376;SDS011;14353;46.070;13.222;2022-12-07T11:45:37;8.95;;;2.50;;
23376;SDS011;14353;46.070;13.222;2022-12-07T11:51:06;10.00;;;2.55;;
23376;SDS011;14353;46.070;13.222;2022-12-07T11:57:58;8.93;;;2.70;;
23376;SDS011;14353;46.070;13.222;2022-12-07T12:07:34;7.85;;;2.50;;
23376;SDS011;14353;46.070;13.222;2022-12-07T12:10:04;6.78;;;2.13;;
23376;SDS011;14353;46.070;13.222;2022-12-07T12:19:17;10.32;;;2.22;;
23376;SDS011;14353;46.070;13.222;2022-12-07T12:21:47;4.35;;;2.60;;
23376;SDS011;14353;46.070;13.222;2022-12-07T12:24:23;7.13;;;2.50;;
23376;SDS011;14353;46.070;13.222;2022-12-07T12:27:01;11.95;;;2.50;;
23376;SDS011;14353;46.070;13.222;2022-12-07T12:29:35;6.30;;;2.50;;
23376;SDS011;14353;46.070;13.222;2022-12-07T12:50:12;10.70;;;2.58;;
23376;SDS011;14353;46.070;13.222;2022-12-07T12:53:02;9.80;;;2.67;;
23376;SDS011;14353;46.070;13.222;2022-12-07T13:04:14;12.20;;;2.47;;
23376;SDS011;14353;46.070;13.222;2022-12-07T13:06:57;11.57;;;2.92;;
23376;SDS011;14353;46.070;13.222;2022-12-07T13:09:43;9.98;;;2.90;;
23376;SDS011;14353;46.070;13.222;2022-12-07T13:12:13;8.60;;;3.10;;
23376;SDS011;14353;46.070;13.222;2022-12-07T13:15:19;8.40;;;2.80;;
23376;SDS011;14353;46.070;13.222;2022-12-07T13:18:03;9.30;;;2.45;;
23376;SDS011;14353;46.070;13.222;2022-12-07T13:20:52;7.38;;;2.88;;
23376;SDS011;14353;46.070;13.222;2022-12-07T13:29:13;8.70;;;2.45;;
23376;SDS011;14353;46.070;13.222;2022-12-07T13:31:56;8.38;;;2.15;;
23376;SDS011;14353;46.070;13.222;2022-12-07T13:34:40;4.18;;;2.20;;
23376;SDS011;14353;46.070;13.222;2022-12-07T13:37:25;7.45;;;2.47;;
23376;SDS011;14353;46.070;13.222;2022-12-07T13:39:58;5.38;;;2.53;;
23376;SDS011;14353;46.070;13.222;2022-12-07T13:42:45;6.75;;;2.40;;
23376;SDS011;14353;46.070;13.222;2022-12-07T13:45:25;3.30;;;2.13;;
23376;SDS011;14353;46.070;13.222;2022-12-07T13:48:20;5.38;;;2.33;;
23376;SDS011;14353;46.070;13.222;2022-12-07T13:53:55;5.65;;;2.45;;
23376;SDS011;14353;46.070;13.222;2022-12-07T13:57:24;10.13;;;2.50;;
23376;SDS011;14353;46.070;13.222;2022-12-07T14:03:37;7.90;;;2.53;;
23376;SDS011;14353;46.070;13.222;2022-12-07T14:06:25;9.70;;;2.40;;
23376;SDS011;14353;46.070;13.222;2022-12-07T14:09:07;4.47;;;2.50;;
23376;SDS011;14353;46.070;13.222;2022-12-07T14:11:44;7.07;;;2.40;;
23376;SDS011;14353;46.070;13.222;2022-12-07T14:17:24;3.78;;;2.05;;
23376;SDS011;14353;46.070;13.222;2022-12-07T14:20:29;3.05;;;2.08;;
23376;SDS011;14353;46.070;13.222;2022-12-07T14:23:22;11.82;;;2.10;;
23376;SDS011;14353;46.070;13.222;2022-12-07T14:32:08;6.80;;;2.40;;
23376;SDS011;14353;46.070;13.222;2022-12-07T14:35:10;3.92;;;1.98;;
23376;SDS011;14353;46.070;13.222;2022-12-07T14:37:46;4.63;;;2.20;;
23376;SDS011;14353;46.070;13.222;2022-12-07T14:43:42;6.13;;;2.15;;
23376;SDS011;14353;46.070;13.222;2022-12-07T14:46:21;5.63;;;2.08;;
23376;SDS011;14353;46.070;13.222;2022-12-07T14:52:11;4.35;;;2.22;;
23376;SDS011;14353;46.070;13.222;2022-12-07T14:54:44;4.40;;;2.20;;
23376;SDS011;14353;46.070;13.222;2022-12-07T14:57:50;6.57;;;2.17;;
23376;SDS011;14353;46.070;13.222;2022-12-07T15:00:44;2.67;;;1.90;;
23376;SDS011;14353;46.070;13.222;2022-12-07T15:09:06;4.57;;;2.22;;
23376;SDS011;14353;46.070;13.222;2022-12-07T15:11:55;4.65;;;2.00;;
23376;SDS011;14353;46.070;13.222;2022-12-07T15:14:31;3.70;;;1.92;;
23376;SDS011;14353;46.070;13.222;2022-12-07T15:17:04;4.03;;;2.07;;
23376;SDS011;14353;46.070;13.222;2022-12-07T15:19:45;4.38;;;2.00;;
23376;SDS011;14353;46.070;13.222;2022-12-07T15:22:27;4.63;;;1.90;;
23376;SDS011;14353;46.070;13.222;2022-12-07T15:25:06;2.72;;;1.88;;
23376;SDS011;14353;46.070;13.222;2022-12-07T15:27:58;4.97;;;2.25;;
23376;SDS011;14353;46.070;13.222;2022-12-07T15:30:30;4.03;;;1.73;;
23376;SDS011;14353;46.070;13.222;2022-12-07T15:33:22;2.35;;;1.90;;
23376;SDS011;14353;46.070;13.222;2022-12-07T15:35:51;4.65;;;2.22;;
23376;SDS011;14353;46.070;13.222;2022-12-07T15:38:48;3.88;;;2.22;;
23376;SDS011;14353;46.070;13.222;2022-12-07T15:41:23;3.35;;;2.00;;
23376;SDS011;14353;46.070;13.222;2022-12-07T15:44:01;2.75;;;1.83;;
23376;SDS011;14353;46.070;13.222;2022-12-07T15:46:50;3.88;;;2.25;;
23376;SDS011;14353;46.070;13.222;2022-12-07T15:49:21;3.33;;;2.10;;
23376;SDS011;14353;46.070;13.222;2022-12-07T15:51:47;3.78;;;1.90;;
23376;SDS011;14353;46.070;13.222;2022-12-07T15:54:20;3.75;;;1.85;;
23376;SDS011;14353;46.070;13.222;2022-12-07T15:56:53;4.18;;;2.10;;
23376;SDS011;14353;46.070;13.222;2022-12-07T15:59:42;2.67;;;2.00;;
23376;SDS011;14353;46.070;13.222;2022-12-07T16:02:14;3.97;;;2.30;;
23376;SDS011;14353;46.070;13.222;2022-12-07T16:04:56;3.08;;;2.20;;
23376;SDS011;14353;46.070;13.222;2022-12-07T16:07:24;3.25;;;2.20;;
23376;SDS011;14353;46.070;13.222;2022-12-07T16:09:53;3.45;;;2.15;;
23376;SDS011;14353;46.070;13.222;2022-12-07T16:12:19;2.60;;;2.30;;
23376;SDS011;14353;46.070;13.222;2022-12-07T16:14:50;2.55;;;2.13;;
23376;SDS011;14353;46.070;13.222;2022-12-07T16:17:16;4.07;;;2.10;;
23376;SDS011;14353;46.070;13.222;2022-12-07T16:19:45;5.20;;;2.55;;
23376;SDS011;14353;46.070;13.222;2022-12-07T16:22:11;3.97;;;2.13;;
23376;SDS011;14353;46.070;13.222;2022-12-07T16:25:08;3.17;;;2.22;;
23376;SDS011;14353;46.070;13.222;2022-12-07T16:28:06;3.70;;;2.33;;
23376;SDS011;14353;46.070;13.222;2022-12-07T16:30:47;6.22;;;2.40;;
23376;SDS011;14353;46.070;13.222;2022-12-07T16:33:44;3.97;;;2.33;;
23376;SDS011;14353;46.070;13.222;2022-12-07T16:36:11;3.38;;;2.35;;
23376;SDS011;14353;46.070;13.222;2022-12-07T16:38:59;4.63;;;2.40;;
23376;SDS011;14353;46.070;13.222;2022-12-07T16:41:28;3.40;;;2.40;;
23376;SDS011;14353;46.070;13.222;2022-12-07T16:43:55;3.17;;;2.20;;
23376;SDS011;14353;46.070;13.222;2022-12-07T16:48:56;3.78;;;2.58;;
23376;SDS011;14353;46.070;13.222;2022-12-07T16:51:22;3.17;;;2.60;;
23376;SDS011;14353;46.070;13.222;2022-12-07T16:53:51;4.60;;;2.70;;
23376;SDS011;14353;46.070;13.222;2022-12-07T16:56:21;2.67;;;2.45;;
23376;SDS011;14353;46.070;13.222;2022-12-07T16:58:51;3.85;;;2.65;;
23376;SDS011;14353;46.070;13.222;2022-12-07T17:01:18;3.47;;;2.30;;
23376;SDS011;14353;46.070;13.222;2022-12-07T17:03:50;4.78;;;2.70;;
23376;SDS011;14353;46.070;13.222;2022-12-07T17:06:22;4.53;;;2.53;;
23376;SDS011;14353;46.070;13.222;2022-12-07T17:08:52;6.15;;;2.75;;
23376;SDS011;14353;46.070;13.222;2022-12-07T17:11:27;4.18;;;2.90;;
23376;SDS011;14353;46.070;13.222;2022-12-07T17:14:05;3.53;;;2.35;;
23376;SDS011;14353;46.070;13.222;2022-12-07T17:19:17;4.00;;;2.92;;
23376;SDS011;14353;46.070;13.222;2022-12-07T17:22:01;4.10;;;2.83;;
23376;SDS011;14353;46.070;13.222;2022-12-07T17:24:30;3.40;;;2.30;;
23376;SDS011;14353;46.070;13.222;2022-12-07T17:26:56;4.22;;;3.00;;
23376;SDS011;14353;46.070;13.222;2022-12-07T17:29:24;3.60;;;2.40;;
23376;SDS011;14353;46.070;13.222;2022-12-07T17:31:59;4.65;;;2.45;;
23376;SDS011;14353;46.070;13.222;2022-12-07T17:34:33;3.53;;;2.42;;
23376;SDS011;14353;46.070;13.222;2022-12-07T17:37:01;3.92;;;2.67;;
23376;SDS011;14353;46.070;13.222;2022-12-07T17:39:28;3.33;;;2.70;;
23376;SDS011;14353;46.070;13.222;2022-12-07T17:41:54;3.78;;;2.65;;
23376;SDS011;14353;46.070;13.222;2022-12-07T17:44:38;3.47;;;2.40;;
23376;SDS011;14353;46.070;13.222;2022-12-07T17:47:07;3.85;;;2.70;;
23376;SDS011;14353;46.070;13.222;2022-12-07T17:49:35;2.50;;;2.30;;
23376;SDS011;14353;46.070;13.222;2022-12-07T17:52:01;3.60;;;2.70;;
23376;SDS011;14353;46.070;13.222;2022-12-07T17:54:45;3.95;;;2.50;;
23376;SDS011;14353;46.070;13.222;2022-12-07T17:57:14;3.92;;;2.60;;
23376;SDS011;14353;46.070;13.222;2022-12-07T17:59:45;3.72;;;2.80;;
23376;SDS011;14353;46.070;13.222;2022-12-07T18:02:14;3.83;;;2.50;;
23376;SDS011;14353;46.070;13.222;2022-12-07T18:04:43;4.15;;;2.42;;
23376;SDS011;14353;46.070;13.222;2022-12-07T18:07:11;3.20;;;2.67;;
23376;SDS011;14353;46.070;13.222;2022-12-07T18:12:29;3.35;;;2.53;;
23376;SDS011;14353;46.070;13.222;2022-12-07T18:14:59;3.42;;;2.45;;
23376;SDS011;14353;46.070;13.222;2022-12-07T18:17:27;3.17;;;2.30;;
23376;SDS011;14353;46.070;13.222;2022-12-07T18:19:53;3.63;;;2.60;;
23376;SDS011;14353;46.070;13.222;2022-12-07T18:22:47;4.20;;;2.47;;
23376;SDS011;14353;46.070;13.222;2022-12-07T18:25:13;3.28;;;2.40;;
23376;SDS011;14353;46.070;13.222;2022-12-07T18:27:51;3.72;;;2.60;;
23376;SDS011;14353;46.070;13.222;2022-12-07T18:30:17;3.80;;;2.55;;
23376;SDS011;14353;46.070;13.222;2022-12-07T18:32:49;3.17;;;2.28;;
23376;SDS011;14353;46.070;13.222;2022-12-07T18:35:17;3.70;;;2.63;;
23376;SDS011;14353;46.070;13.222;2022-12-07T18:37:48;2.67;;;2.22;;
23376;SDS011;14353;46.070;13.222;2022-12-07T18:40:14;3.58;;;2.67;;
23376;SDS011;14353;46.070;13.222;2022-12-07T18:42:42;3.83;;;2.65;;
23376;SDS011;14353;46.070;13.222;2022-12-07T18:45:11;3.33;;;2.30;;
23376;SDS011;14353;46.070;13.222;2022-12-07T18:47:37;2.58;;;2.20;;
23376;SDS011;14353;46.070;13.222;2022-12-07T18:52:59;3.97;;;2.90;;
23376;SDS011;14353;46.070;13.222;2022-12-07T18:55:27;4.03;;;3.15;;